Terminal Aerodrome Forecast
Issued by NWS

Home | Current Version | Previous Version | Text Only | Print | Product List | Glossary On
Versions: 1 2 3 4 5 6 7 8 9 10 11 12 13 14 15 16 17 18 19 20 21 22
754
FTUS43 KDLH 241132
TAFHYR
TAF
KHYR 241132Z 2412/2512 VRB05KT P6SM VCTS SCT035CB BKN060
      TEMPO 2413/2416 2SM -RA BKN008
     FM241800 24008KT P6SM VCTS SCT025CB BKN050
     FM250200 10008KT P6SM SCT005 BKN040=

USA.gov is the U.S. government's official web portal to all federal, state and local government web resources and services.